sensor_id;sensor_type;location;lat;lon;timestamp;pressure;altitude;pressure_sealevel;temperature;humidity
72802;BME280;61891;55.818;37.084;2022-09-30T00:01:47;99273.66;;;9.87;70.14
72802;BME280;61891;55.818;37.084;2022-09-30T00:04:18;99185.09;;;9.32;70.63
72802;BME280;61891;55.818;37.084;2022-09-30T00:06:44;99274.97;;;9.91;70.08
72802;BME280;61891;55.818;37.084;2022-09-30T00:09:11;99260.75;;;9.84;70.41
72802;BME280;61891;55.818;37.084;2022-09-30T00:11:38;99278.44;;;9.91;70.59
72802;BME280;61891;55.818;37.084;2022-09-30T00:14:05;99251.81;;;9.77;70.83
72802;BME280;61891;55.818;37.084;2022-09-30T00:16:35;99285.91;;;9.96;70.34
72802;BME280;61891;55.818;37.084;2022-09-30T00:19:02;99286.22;;;9.93;70.36
72802;BME280;61891;55.818;37.084;2022-09-30T00:21:29;99281.09;;;9.91;70.25
72802;BME280;61891;55.818;37.084;2022-09-30T00:23:55;99288.22;;;9.91;70.71
72802;BME280;61891;55.818;37.084;2022-09-30T00:26:22;99297.47;;;9.87;70.56
72802;BME280;61891;55.818;37.084;2022-09-30T00:28:50;99294.16;;;9.85;70.40
72802;BME280;61891;55.818;37.084;2022-09-30T00:31:17;99297.97;;;9.82;70.96
72802;BME280;61891;55.818;37.084;2022-09-30T00:33:44;99302.59;;;9.80;70.71
72802;BME280;61891;55.818;37.084;2022-09-30T00:36:32;99295.66;;;9.79;70.92
72802;BME280;61891;55.818;37.084;2022-09-30T00:38:58;99296.78;;;9.77;70.59
72802;BME280;61891;55.818;37.084;2022-09-30T00:41:24;99291.16;;;9.72;70.70
72802;BME280;61891;55.818;37.084;2022-09-30T00:43:50;99285.84;;;9.63;71.01
72802;BME280;61891;55.818;37.084;2022-09-30T00:46:34;99292.47;;;9.67;71.29
72802;BME280;61891;55.818;37.084;2022-09-30T00:49:06;99272.44;;;9.57;71.47
72802;BME280;61891;55.818;37.084;2022-09-30T00:51:36;99288.00;;;9.68;70.81
72802;BME280;61891;55.818;37.084;2022-09-30T00:54:11;99289.00;;;9.67;71.52
72802;BME280;61891;55.818;37.084;2022-09-30T00:57:01;99271.13;;;9.61;71.09
72802;BME280;61891;55.818;37.084;2022-09-30T00:59:38;99279.09;;;9.69;71.21
72802;BME280;61891;55.818;37.084;2022-09-30T01:02:06;99284.38;;;9.69;71.24
72802;BME280;61891;55.818;37.084;2022-09-30T01:04:33;99292.84;;;9.81;71.50
72802;BME280;61891;55.818;37.084;2022-09-30T01:07:02;99283.25;;;9.88;71.60
72802;BME280;61891;55.818;37.084;2022-09-30T01:09:31;99255.28;;;9.77;71.48
72802;BME280;61891;55.818;37.084;2022-09-30T01:11:58;99278.94;;;9.95;71.23
72802;BME280;61891;55.818;37.084;2022-09-30T01:14:26;99283.59;;;10.01;71.46
72802;BME280;61891;55.818;37.084;2022-09-30T01:33:23;99303.78;;;10.10;71.24
72802;BME280;61891;55.818;37.084;2022-09-30T01:36:09;99305.75;;;10.08;70.54
72802;BME280;61891;55.818;37.084;2022-09-30T01:46:51;99300.31;;;10.18;71.28
72802;BME280;61891;55.818;37.084;2022-09-30T01:49:35;99274.66;;;10.10;71.18
72802;BME280;61891;55.818;37.084;2022-09-30T01:52:08;99275.31;;;10.12;70.97
72802;BME280;61891;55.818;37.084;2022-09-30T01:54:47;99250.81;;;9.94;70.92
72802;BME280;61891;55.818;37.084;2022-09-30T01:57:28;99292.88;;;10.21;70.74
72802;BME280;61891;55.818;37.084;2022-09-30T02:00:05;99292.72;;;10.23;70.84
72802;BME280;61891;55.818;37.084;2022-09-30T02:02:40;99285.22;;;10.18;70.44
72802;BME280;61891;55.818;37.084;2022-09-30T02:05:17;99285.41;;;10.17;70.08
72802;BME280;61891;55.818;37.084;2022-09-30T02:07:56;99265.72;;;10.03;70.29
72802;BME280;61891;55.818;37.084;2022-09-30T02:10:33;99295.84;;;10.10;70.37
72802;BME280;61891;55.818;37.084;2022-09-30T02:13:08;99293.69;;;10.06;70.52
72802;BME280;61891;55.818;37.084;2022-09-30T02:15:42;99257.59;;;9.80;70.60
72802;BME280;61891;55.818;37.084;2022-09-30T02:21:08;99283.41;;;9.94;70.75
72802;BME280;61891;55.818;37.084;2022-09-30T02:23:37;99226.13;;;9.53;70.47
72802;BME280;61891;55.818;37.084;2022-09-30T02:26:26;99269.00;;;9.73;70.94
72802;BME280;61891;55.818;37.084;2022-09-30T02:28:56;99260.72;;;9.76;70.77
72802;BME280;61891;55.818;37.084;2022-09-30T02:31:25;99278.13;;;9.86;70.75
72802;BME280;61891;55.818;37.084;2022-09-30T02:33:55;99294.16;;;9.93;70.86
72802;BME280;61891;55.818;37.084;2022-09-30T02:36:37;99287.88;;;9.94;71.04
72802;BME280;61891;55.818;37.084;2022-09-30T02:39:13;99234.91;;;9.61;70.85
72802;BME280;61891;55.818;37.084;2022-09-30T02:41:46;99243.69;;;9.70;70.76
72802;BME280;61891;55.818;37.084;2022-09-30T02:44:14;99289.22;;;9.98;71.16
72802;BME280;61891;55.818;37.084;2022-09-30T02:55:17;99300.13;;;9.95;70.62
72802;BME280;61891;55.818;37.084;2022-09-30T03:00:39;99302.78;;;9.87;71.18
72802;BME280;61891;55.818;37.084;2022-09-30T03:03:13;99252.78;;;9.59;70.44
72802;BME280;61891;55.818;37.084;2022-09-30T03:05:42;99285.38;;;9.76;70.83
72802;BME280;61891;55.818;37.084;2022-09-30T03:08:08;99306.41;;;9.86;70.80
72802;BME280;61891;55.818;37.084;2022-09-30T03:10:33;99301.13;;;9.86;70.86
72802;BME280;61891;55.818;37.084;2022-09-30T03:24:44;99282.25;;;9.89;70.60
72802;BME280;61891;55.818;37.084;2022-09-30T03:30:10;99269.16;;;9.79;71.13
72802;BME280;61891;55.818;37.084;2022-09-30T03:35:47;99290.84;;;9.83;70.94
72802;BME280;61891;55.818;37.084;2022-09-30T03:44:15;99309.88;;;9.94;70.45
72802;BME280;61891;55.818;37.084;2022-09-30T03:46:46;99306.41;;;9.86;70.35
72802;BME280;61891;55.818;37.084;2022-09-30T03:49:28;99314.00;;;9.81;70.46
72802;BME280;61891;55.818;37.084;2022-09-30T03:51:57;99296.47;;;9.72;70.57
72802;BME280;61891;55.818;37.084;2022-09-30T03:54:24;99293.81;;;9.72;70.57
72802;BME280;61891;55.818;37.084;2022-09-30T03:56:50;99310.69;;;9.79;70.98
72802;BME280;61891;55.818;37.084;2022-09-30T03:59:23;99304.09;;;9.83;71.01
72802;BME280;61891;55.818;37.084;2022-09-30T04:01:50;99317.66;;;9.88;70.78
72802;BME280;61891;55.818;37.084;2022-09-30T04:04:17;99302.44;;;9.90;71.01
72802;BME280;61891;55.818;37.084;2022-09-30T04:06:43;99311.03;;;9.92;70.48
72802;BME280;61891;55.818;37.084;2022-09-30T04:09:08;99285.38;;;9.76;70.74
72802;BME280;61891;55.818;37.084;2022-09-30T04:11:35;99302.44;;;9.98;70.95
72802;BME280;61891;55.818;37.084;2022-09-30T04:14:01;99293.50;;;9.91;70.43
72802;BME280;61891;55.818;37.084;2022-09-30T04:16:29;99301.78;;;9.96;70.69
72802;BME280;61891;55.818;37.084;2022-09-30T04:18:55;99311.38;;;10.05;70.62
72802;BME280;61891;55.818;37.084;2022-09-30T04:21:24;99306.91;;;10.14;70.77
72802;BME280;61891;55.818;37.084;2022-09-30T04:23:53;99308.59;;;10.23;70.88
72802;BME280;61891;55.818;37.084;2022-09-30T04:26:19;99289.03;;;10.16;70.51
72802;BME280;61891;55.818;37.084;2022-09-30T04:28:45;99303.31;;;10.23;70.38
72802;BME280;61891;55.818;37.084;2022-09-30T04:31:12;99326.69;;;10.44;70.39
72802;BME280;61891;55.818;37.084;2022-09-30T04:33:38;99301.81;;;10.37;70.27
72802;BME280;61891;55.818;37.084;2022-09-30T04:36:05;99301.00;;;10.44;69.78
72802;BME280;61891;55.818;37.084;2022-09-30T04:38:31;99299.69;;;10.40;69.80
72802;BME280;61891;55.818;37.084;2022-09-30T04:41:01;99304.16;;;10.48;69.69
72802;BME280;61891;55.818;37.084;2022-09-30T04:43:27;99318.22;;;10.56;69.83
72802;BME280;61891;55.818;37.084;2022-09-30T04:45:53;99314.41;;;10.59;69.65
72802;BME280;61891;55.818;37.084;2022-09-30T04:48:19;99268.69;;;10.32;69.79
72802;BME280;61891;55.818;37.084;2022-09-30T04:50:46;99320.72;;;10.58;70.03
72802;BME280;61891;55.818;37.084;2022-09-30T04:53:13;99328.31;;;10.61;69.63
72802;BME280;61891;55.818;37.084;2022-09-30T04:55:40;99328.16;;;10.62;69.56
72802;BME280;61891;55.818;37.084;2022-09-30T04:58:06;99324.84;;;10.60;69.82
72802;BME280;61891;55.818;37.084;2022-09-30T05:00:31;99315.56;;;10.64;69.59
72802;BME280;61891;55.818;37.084;2022-09-30T05:02:57;99320.84;;;10.64;69.63
72802;BME280;61891;55.818;37.084;2022-09-30T05:05:23;99276.66;;;10.41;69.50
72802;BME280;61891;55.818;37.084;2022-09-30T05:07:49;99273.03;;;10.42;69.79
72802;BME280;61891;55.818;37.084;2022-09-30T05:10:14;99309.91;;;10.68;69.45
72802;BME280;61891;55.818;37.084;2022-09-30T05:12:41;99307.28;;;10.68;69.34
72802;BME280;61891;55.818;37.084;2022-09-30T05:15:08;99310.56;;;10.70;69.74
72802;BME280;61891;55.818;37.084;2022-09-30T05:17:34;99300.28;;;10.75;69.61
72802;BME280;61891;55.818;37.084;2022-09-30T05:20:00;99266.34;;;10.62;69.21
72802;BME280;61891;55.818;37.084;2022-09-30T05:22:29;99289.81;;;10.89;69.28
72802;BME280;61891;55.818;37.084;2022-09-30T05:24:54;99302.72;;;10.92;68.83
72802;BME280;61891;55.818;37.084;2022-09-30T05:27:22;99247.63;;;10.72;68.53
72802;BME280;61891;55.818;37.084;2022-09-30T05:29:47;99310.47;;;11.10;68.80
72802;BME280;61891;55.818;37.084;2022-09-30T05:32:13;99324.00;;;11.23;68.80
72802;BME280;61891;55.818;37.084;2022-09-30T05:34:39;99328.75;;;11.36;68.60
72802;BME280;61891;55.818;37.084;2022-09-30T05:37:05;99338.03;;;11.40;68.37
72802;BME280;61891;55.818;37.084;2022-09-30T05:39:31;99335.38;;;11.40;68.60
72802;BME280;61891;55.818;37.084;2022-09-30T05:41:57;99290.03;;;11.19;68.26
72802;BME280;61891;55.818;37.084;2022-09-30T05:44:23;99339.47;;;11.51;68.18
72802;BME280;61891;55.818;37.084;2022-09-30T05:46:49;99304.34;;;11.41;68.03
72802;BME280;61891;55.818;37.084;2022-09-30T05:49:15;99329.94;;;11.65;68.23
72802;BME280;61891;55.818;37.084;2022-09-30T05:51:41;99319.94;;;11.75;68.23
72802;BME280;61891;55.818;37.084;2022-09-30T05:54:08;99305.34;;;11.71;68.09
72802;BME280;61891;55.818;37.084;2022-09-30T05:56:34;99300.97;;;11.86;68.13
72802;BME280;61891;55.818;37.084;2022-09-30T05:59:00;99325.59;;;12.03;67.49
72802;BME280;61891;55.818;37.084;2022-09-30T06:01:26;99307.66;;;12.05;67.37
72802;BME280;61891;55.818;37.084;2022-09-30T06:03:51;99310.34;;;12.19;67.13
72802;BME280;61891;55.818;37.084;2022-09-30T06:06:17;99310.94;;;12.30;66.80
72802;BME280;61891;55.818;37.084;2022-09-30T06:08:46;99318.41;;;12.49;66.83
72802;BME280;61891;55.818;37.084;2022-09-30T06:11:18;99319.59;;;12.46;66.58
72802;BME280;61891;55.818;37.084;2022-09-30T06:13:45;99325.09;;;12.45;66.95
72802;BME280;61891;55.818;37.084;2022-09-30T06:16:13;99335.25;;;12.41;66.78
72802;BME280;61891;55.818;37.084;2022-09-30T06:18:39;99336.09;;;12.42;66.70
72802;BME280;61891;55.818;37.084;2022-09-30T06:21:07;99328.94;;;12.42;66.56
72802;BME280;61891;55.818;37.084;2022-09-30T06:23:34;99321.78;;;12.43;66.60
72802;BME280;61891;55.818;37.084;2022-09-30T06:26:01;99328.13;;;12.56;66.81
72802;BME280;61891;55.818;37.084;2022-09-30T06:28:27;99324.00;;;12.54;66.78
72802;BME280;61891;55.818;37.084;2022-09-30T06:30:53;99335.22;;;12.64;66.17
72802;BME280;61891;55.818;37.084;2022-09-30T06:33:20;99314.13;;;12.63;66.13
72802;BME280;61891;55.818;37.084;2022-09-30T06:35:46;99330.66;;;12.87;65.90
72802;BME280;61891;55.818;37.084;2022-09-30T06:38:13;99305.53;;;13.05;65.97
72802;BME280;61891;55.818;37.084;2022-09-30T06:40:42;99305.25;;;13.14;65.20
72802;BME280;61891;55.818;37.084;2022-09-30T06:43:08;99291.13;;;13.14;64.94
72802;BME280;61891;55.818;37.084;2022-09-30T06:45:36;99331.88;;;13.29;65.14
72802;BME280;61891;55.818;37.084;2022-09-30T06:48:02;99341.78;;;13.35;64.74
72802;BME280;61891;55.818;37.084;2022-09-30T06:50:30;99289.66;;;12.97;64.87
72802;BME280;61891;55.818;37.084;2022-09-30T06:52:58;99341.16;;;13.18;65.00
72802;BME280;61891;55.818;37.084;2022-09-30T06:55:25;99349.88;;;13.27;64.88
72802;BME280;61891;55.818;37.084;2022-09-30T06:57:52;99351.44;;;13.36;65.04
72802;BME280;61891;55.818;37.084;2022-09-30T07:00:19;99338.13;;;13.36;64.69
72802;BME280;61891;55.818;37.084;2022-09-30T07:02:45;99344.88;;;13.53;64.56
72802;BME280;61891;55.818;37.084;2022-09-30T07:05:13;99332.97;;;13.49;64.59
72802;BME280;61891;55.818;37.084;2022-09-30T07:07:40;99317.44;;;13.53;64.25
72802;BME280;61891;55.818;37.084;2022-09-30T07:10:07;99347.94;;;13.86;64.07
72802;BME280;61891;55.818;37.084;2022-09-30T07:12:32;99346.50;;;14.05;63.28
72802;BME280;61891;55.818;37.084;2022-09-30T07:14:59;99339.66;;;14.17;63.11
72802;BME280;61891;55.818;37.084;2022-09-30T07:17:27;99344.22;;;14.45;63.14
72802;BME280;61891;55.818;37.084;2022-09-30T07:19:53;99335.91;;;14.55;62.94
72802;BME280;61891;55.818;37.084;2022-09-30T07:22:19;99334.31;;;14.60;62.48
72802;BME280;61891;55.818;37.084;2022-09-30T07:25:00;99307.38;;;14.55;62.36
72802;BME280;61891;55.818;37.084;2022-09-30T07:27:31;99335.81;;;14.97;61.89
72802;BME280;61891;55.818;37.084;2022-09-30T07:29:57;99338.81;;;15.22;61.50
72802;BME280;61891;55.818;37.084;2022-09-30T07:32:24;99347.38;;;15.52;61.03
72802;BME280;61891;55.818;37.084;2022-09-30T07:34:50;99338.78;;;15.57;61.12
72802;BME280;61891;55.818;37.084;2022-09-30T07:37:18;99346.91;;;15.70;60.68
72802;BME280;61891;55.818;37.084;2022-09-30T07:39:45;99319.22;;;15.49;61.04
72802;BME280;61891;55.818;37.084;2022-09-30T07:42:14;99345.13;;;15.49;60.34
72802;BME280;61891;55.818;37.084;2022-09-30T07:44:40;99340.56;;;15.43;60.60
72802;BME280;61891;55.818;37.084;2022-09-30T07:47:10;99308.13;;;15.53;60.15
72802;BME280;61891;55.818;37.084;2022-09-30T07:49:37;99335.91;;;16.13;60.01
72802;BME280;61891;55.818;37.084;2022-09-30T07:52:03;99327.31;;;16.37;59.65
72802;BME280;61891;55.818;37.084;2022-09-30T07:54:31;99322.56;;;16.52;59.47
72802;BME280;61891;55.818;37.084;2022-09-30T07:56:58;99322.38;;;16.60;58.95
72802;BME280;61891;55.818;37.084;2022-09-30T07:59:25;99335.97;;;16.65;59.00
72802;BME280;61891;55.818;37.084;2022-09-30T08:01:51;99333.28;;;16.59;58.78
72802;BME280;61891;55.818;37.084;2022-09-30T08:04:19;99320.72;;;16.46;58.93
72802;BME280;61891;55.818;37.084;2022-09-30T08:06:48;99319.91;;;16.46;58.96
72802;BME280;61891;55.818;37.084;2022-09-30T08:09:16;99327.91;;;16.39;58.84
72802;BME280;61891;55.818;37.084;2022-09-30T08:11:42;99329.97;;;16.37;59.02
72802;BME280;61891;55.818;37.084;2022-09-30T08:14:13;99322.97;;;16.23;59.26
72802;BME280;61891;55.818;37.084;2022-09-30T08:16:39;99339.22;;;16.21;58.82
72802;BME280;61891;55.818;37.084;2022-09-30T08:19:05;99335.50;;;16.16;58.79
72802;BME280;61891;55.818;37.084;2022-09-30T08:21:30;99336.34;;;16.29;58.58
72802;BME280;61891;55.818;37.084;2022-09-30T08:23:56;99331.84;;;16.69;58.49
72802;BME280;61891;55.818;37.084;2022-09-30T08:26:23;99315.72;;;17.09;58.58
72802;BME280;61891;55.818;37.084;2022-09-30T08:28:49;99323.84;;;17.47;58.21
72802;BME280;61891;55.818;37.084;2022-09-30T08:31:20;99270.72;;;17.37;57.73
72802;BME280;61891;55.818;37.084;2022-09-30T08:33:46;99324.41;;;18.07;56.78
72802;BME280;61891;55.818;37.084;2022-09-30T08:36:13;99318.72;;;18.22;56.43
72802;BME280;61891;55.818;37.084;2022-09-30T08:38:39;99312.00;;;18.38;56.60
72802;BME280;61891;55.818;37.084;2022-09-30T08:46:50;99333.56;;;18.81;54.98
72802;BME280;61891;55.818;37.084;2022-09-30T08:52:15;99310.03;;;19.86;53.96
72802;BME280;61891;55.818;37.084;2022-09-30T08:54:45;99317.72;;;20.42;53.79
72802;BME280;61891;55.818;37.084;2022-09-30T08:57:12;99322.69;;;20.92;52.59
72802;BME280;61891;55.818;37.084;2022-09-30T08:59:39;99331.34;;;21.17;52.49
72802;BME280;61891;55.818;37.084;2022-09-30T09:04:42;99320.56;;;21.06;49.10
72802;BME280;61891;55.818;37.084;2022-09-30T09:07:31;99321.28;;;21.13;49.19
72802;BME280;61891;55.818;37.084;2022-09-30T09:10:18;99320.81;;;21.04;48.95
72802;BME280;61891;55.818;37.084;2022-09-30T09:13:00;99315.22;;;21.58;48.83
72802;BME280;61891;55.818;37.084;2022-09-30T09:24:02;99312.56;;;20.41;49.57
72802;BME280;61891;55.818;37.084;2022-09-30T09:26:34;99305.91;;;20.13;50.05
72802;BME280;61891;55.818;37.084;2022-09-30T09:29:21;99321.75;;;19.91;50.04
72802;BME280;61891;55.818;37.084;2022-09-30T09:31:54;99314.41;;;19.69;50.47
72802;BME280;61891;55.818;37.084;2022-09-30T09:34:23;99310.03;;;19.56;50.52
72802;BME280;61891;55.818;37.084;2022-09-30T09:39:50;99309.81;;;19.57;50.95
72802;BME280;61891;55.818;37.084;2022-09-30T09:42:28;99215.69;;;18.73;51.26
72802;BME280;61891;55.818;37.084;2022-09-30T09:45:34;99325.09;;;19.39;51.63
72802;BME280;61891;55.818;37.084;2022-09-30T09:47:53;99320.47;;;19.46;51.39
72802;BME280;61891;55.818;37.084;2022-09-30T09:56:01;99315.84;;;20.54;50.40
72802;BME280;61891;55.818;37.084;2022-09-30T09:58:27;99308.03;;;20.76;49.88
72802;BME280;61891;55.818;37.084;2022-09-30T10:01:08;99277.81;;;20.51;49.02
72802;BME280;61891;55.818;37.084;2022-09-30T10:03:45;99311.88;;;20.69;49.01
72802;BME280;61891;55.818;37.084;2022-09-30T10:06:13;99316.38;;;20.98;49.00
72802;BME280;61891;55.818;37.084;2022-09-30T10:08:39;99313.94;;;21.60;49.13
72802;BME280;61891;55.818;37.084;2022-09-30T10:11:20;99295.03;;;21.60;47.90
72802;BME280;61891;55.818;37.084;2022-09-30T10:13:47;99297.75;;;22.34;47.51
72802;BME280;61891;55.818;37.084;2022-09-30T10:18:53;99312.97;;;23.29;46.05
72802;BME280;61891;55.818;37.084;2022-09-30T10:21:26;99308.25;;;23.19;45.04
72802;BME280;61891;55.818;37.084;2022-09-30T10:23:53;99294.34;;;23.10;43.91
72802;BME280;61891;55.818;37.084;2022-09-30T10:26:20;99304.28;;;23.48;43.45
72802;BME280;61891;55.818;37.084;2022-09-30T10:28:55;99295.88;;;23.67;43.50
72802;BME280;61891;55.818;37.084;2022-09-30T10:31:24;99294.66;;;23.36;43.45
72802;BME280;61891;55.818;37.084;2022-09-30T10:36:28;99302.09;;;24.48;42.44
72802;BME280;61891;55.818;37.084;2022-09-30T10:39:06;99299.88;;;24.77;41.42
72802;BME280;61891;55.818;37.084;2022-09-30T10:41:35;99292.41;;;23.98;41.25
72802;BME280;61891;55.818;37.084;2022-09-30T10:44:04;99310.72;;;23.21;41.88
72802;BME280;61891;55.818;37.084;2022-09-30T10:46:36;99312.00;;;22.29;43.32
72802;BME280;61891;55.818;37.084;2022-09-30T10:51:55;99294.59;;;21.51;45.27
72802;BME280;61891;55.818;37.084;2022-09-30T10:54:42;99289.72;;;21.37;45.72
72802;BME280;61891;55.818;37.084;2022-09-30T10:57:17;99233.41;;;20.65;46.25
72802;BME280;61891;55.818;37.084;2022-09-30T10:59:44;99282.03;;;20.58;47.10
72802;BME280;61891;55.818;37.084;2022-09-30T11:03:04;99309.03;;;20.40;47.56
72802;BME280;61891;55.818;37.084;2022-09-30T11:08:21;99315.91;;;19.94;49.01
72802;BME280;61891;55.818;37.084;2022-09-30T11:17:20;99320.22;;;19.47;50.37
72802;BME280;61891;55.818;37.084;2022-09-30T11:19:48;99323.44;;;19.38;50.83
72802;BME280;61891;55.818;37.084;2022-09-30T11:22:41;99322.56;;;19.25;51.04
72802;BME280;61891;55.818;37.084;2022-09-30T11:25:14;99284.94;;;18.89;51.43
72802;BME280;61891;55.818;37.084;2022-09-30T11:30:43;99316.69;;;18.74;52.82
72802;BME280;61891;55.818;37.084;2022-09-30T11:35:54;99340.44;;;18.45;53.57
72802;BME280;61891;55.818;37.084;2022-09-30T11:44:13;99336.22;;;18.31;55.01
72802;BME280;61891;55.818;37.084;2022-09-30T12:00:14;99295.19;;;17.48;57.04
72802;BME280;61891;55.818;37.084;2022-09-30T12:10:54;99340.09;;;17.59;58.14
72802;BME280;61891;55.818;37.084;2022-09-30T12:13:24;99330.00;;;17.54;58.39
72802;BME280;61891;55.818;37.084;2022-09-30T12:15:53;99313.16;;;17.40;58.17
72802;BME280;61891;55.818;37.084;2022-09-30T12:18:27;99320.97;;;17.49;58.19
72802;BME280;61891;55.818;37.084;2022-09-30T12:20:59;99335.13;;;17.62;58.20
72802;BME280;61891;55.818;37.084;2022-09-30T12:23:43;99331.00;;;17.60;58.49
72802;BME280;61891;55.818;37.084;2022-09-30T12:26:11;99317.84;;;17.52;58.58
72802;BME280;61891;55.818;37.084;2022-09-30T12:37:19;99331.81;;;17.74;58.99
72802;BME280;61891;55.818;37.084;2022-09-30T12:41:16;99339.03;;;17.73;58.54
72802;BME280;61891;55.818;37.084;2022-09-30T12:49:25;99345.41;;;17.65;59.12
72802;BME280;61891;55.818;37.084;2022-09-30T12:51:55;99345.03;;;17.62;59.27
72802;BME280;61891;55.818;37.084;2022-09-30T12:54:34;99350.59;;;17.60;59.21
72802;BME280;61891;55.818;37.084;2022-09-30T12:57:04;99348.13;;;17.59;59.43
72802;BME280;61891;55.818;37.084;2022-09-30T12:59:36;99341.56;;;17.55;59.33
72802;BME280;61891;55.818;37.084;2022-09-30T13:02:04;99304.13;;;17.28;59.84
72802;BME280;61891;55.818;37.084;2022-09-30T13:14:23;99353.91;;;17.56;59.51
72802;BME280;61891;55.818;37.084;2022-09-30T13:19:48;99359.69;;;17.53;60.30
72802;BME280;61891;55.818;37.084;2022-09-30T13:27:43;99330.97;;;17.15;60.72
72802;BME280;61891;55.818;37.084;2022-09-30T13:32:38;99375.63;;;17.41;60.26
72802;BME280;61891;55.818;37.084;2022-09-30T13:41:13;99374.63;;;17.29;60.93
72802;BME280;61891;55.818;37.084;2022-09-30T13:44:03;99377.09;;;17.24;61.31
72802;BME280;61891;55.818;37.084;2022-09-30T13:46:34;99388.03;;;17.22;61.56
72802;BME280;61891;55.818;37.084;2022-09-30T13:49:45;99408.84;;;17.20;62.31
72802;BME280;61891;55.818;37.084;2022-09-30T13:52:21;99406.38;;;17.12;62.47
72802;BME280;61891;55.818;37.084;2022-09-30T13:54:49;99381.69;;;16.97;63.33
72802;BME280;61891;55.818;37.084;2022-09-30T13:57:27;99374.69;;;16.89;63.46
72802;BME280;61891;55.818;37.084;2022-09-30T14:00:09;99410.50;;;17.01;63.96
72802;BME280;61891;55.818;37.084;2022-09-30T14:03:16;99405.78;;;16.97;63.68
72802;BME280;61891;55.818;37.084;2022-09-30T14:22:13;99423.91;;;16.68;65.56
72802;BME280;61891;55.818;37.084;2022-09-30T14:24:40;99416.66;;;16.62;65.72
72802;BME280;61891;55.818;37.084;2022-09-30T14:32:29;99426.53;;;16.62;66.29
72802;BME280;61891;55.818;37.084;2022-09-30T14:34:57;99418.72;;;16.60;65.89
72802;BME280;61891;55.818;37.084;2022-09-30T14:37:34;99369.88;;;16.25;66.26
72802;BME280;61891;55.818;37.084;2022-09-30T14:40:01;99418.69;;;16.54;65.97
72802;BME280;61891;55.818;37.084;2022-09-30T14:42:31;99425.50;;;16.50;66.83
72802;BME280;61891;55.818;37.084;2022-09-30T14:44:59;99409.81;;;16.40;67.16
72802;BME280;61891;55.818;37.084;2022-09-30T14:47:35;99432.47;;;16.44;67.08
72802;BME280;61891;55.818;37.084;2022-09-30T14:50:08;99428.34;;;16.35;66.91
72802;BME280;61891;55.818;37.084;2022-09-30T14:52:41;99434.09;;;16.32;67.51
72802;BME280;61891;55.818;37.084;2022-09-30T14:55:34;99427.31;;;16.29;67.30
72802;BME280;61891;55.818;37.084;2022-09-30T15:00:48;99443.97;;;16.31;67.62
72802;BME280;61891;55.818;37.084;2022-09-30T15:03:14;99451.78;;;16.26;68.17
72802;BME280;61891;55.818;37.084;2022-09-30T15:05:41;99450.94;;;16.19;67.90
72802;BME280;61891;55.818;37.084;2022-09-30T15:08:16;99452.75;;;16.12;68.58
72802;BME280;61891;55.818;37.084;2022-09-30T15:10:49;99451.88;;;15.98;69.24
72802;BME280;61891;55.818;37.084;2022-09-30T15:13:29;99381.69;;;15.48;70.34
72802;BME280;61891;55.818;37.084;2022-09-30T15:15:56;99451.00;;;15.85;70.41
72802;BME280;61891;55.818;37.084;2022-09-30T15:20:54;99443.13;;;15.70;70.36
72802;BME280;61891;55.818;37.084;2022-09-30T15:23:27;99446.41;;;15.72;70.30
72802;BME280;61891;55.818;37.084;2022-09-30T15:25:53;99458.78;;;15.79;70.67
72802;BME280;61891;55.818;37.084;2022-09-30T15:28:19;99459.63;;;15.80;70.82
72802;BME280;61891;55.818;37.084;2022-09-30T15:30:45;99460.00;;;15.77;70.19
72802;BME280;61891;55.818;37.084;2022-09-30T15:33:15;99409.59;;;15.39;70.32
72802;BME280;61891;55.818;37.084;2022-09-30T15:35:42;99478.28;;;15.73;70.96
72802;BME280;61891;55.818;37.084;2022-09-30T15:38:17;99479.91;;;15.68;71.53
72802;BME280;61891;55.818;37.084;2022-09-30T15:40:50;99431.94;;;15.32;71.67
72802;BME280;61891;55.818;37.084;2022-09-30T15:43:43;99488.69;;;15.62;71.88
72802;BME280;61891;55.818;37.084;2022-09-30T15:46:16;99493.22;;;15.61;71.85
72802;BME280;61891;55.818;37.084;2022-09-30T15:48:43;99488.69;;;15.62;72.05
72802;BME280;61891;55.818;37.084;2022-09-30T15:51:33;99491.94;;;15.57;72.41
72802;BME280;61891;55.818;37.084;2022-09-30T15:54:01;99473.78;;;15.53;72.40
72802;BME280;61891;55.818;37.084;2022-09-30T15:56:41;99483.72;;;15.59;72.39
72802;BME280;61891;55.818;37.084;2022-09-30T15:59:09;99478.25;;;15.45;72.33
72802;BME280;61891;55.818;37.084;2022-09-30T16:01:43;99484.47;;;15.53;72.92
72802;BME280;61891;55.818;37.084;2022-09-30T16:09:29;99489.81;;;15.53;73.08
72802;BME280;61891;55.818;37.084;2022-09-30T16:12:13;99487.53;;;15.49;73.43
72802;BME280;61891;55.818;37.084;2022-09-30T16:14:57;99464.38;;;15.29;72.94
72802;BME280;61891;55.818;37.084;2022-09-30T16:17:33;99503.50;;;15.43;73.30
72802;BME280;61891;55.818;37.084;2022-09-30T16:20:03;99495.91;;;15.40;73.93
72802;BME280;61891;55.818;37.084;2022-09-30T16:27:47;99494.72;;;15.21;74.27
72802;BME280;61891;55.818;37.084;2022-09-30T16:30:18;99418.06;;;14.66;74.40
72802;BME280;61891;55.818;37.084;2022-09-30T16:32:47;99504.72;;;15.12;74.66
72802;BME280;61891;55.818;37.084;2022-09-30T16:35:19;99498.50;;;15.05;74.60
72802;BME280;61891;55.818;37.084;2022-09-30T16:37:47;99494.81;;;15.06;74.73
72802;BME280;61891;55.818;37.084;2022-09-30T16:40:17;99502.09;;;15.19;74.02
72802;BME280;61891;55.818;37.084;2022-09-30T16:42:44;99495.44;;;15.08;74.77
72802;BME280;61891;55.818;37.084;2022-09-30T16:45:12;99491.69;;;15.03;74.69
72802;BME280;61891;55.818;37.084;2022-09-30T16:47:42;99503.06;;;15.11;74.37
72802;BME280;61891;55.818;37.084;2022-09-30T16:50:30;99475.56;;;14.90;74.25
72802;BME280;61891;55.818;37.084;2022-09-30T16:52:57;99512.09;;;15.10;74.06